createdAt,value
2023-05-05T00:02:20.857Z,52.30
2023-05-05T00:04:48.786Z,52.10
2023-05-05T00:07:17.025Z,52.30
2023-05-05T00:09:44.877Z,52.30
2023-05-05T00:12:13.080Z,52.50
2023-05-05T00:14:41.079Z,52.70
2023-05-05T00:17:10.512Z,52.70
2023-05-05T00:19:38.360Z,52.80
2023-05-05T00:22:06.289Z,52.90
2023-05-05T00:24:34.372Z,53.00
2023-05-05T00:27:03.465Z,53.10
2023-05-05T00:29:31.446Z,53.40
2023-05-05T00:31:59.462Z,53.80
2023-05-05T00:34:28.691Z,53.70
2023-05-05T00:36:56.528Z,54.30
2023-05-05T00:39:24.448Z,54.30
2023-05-05T00:41:52.337Z,54.60
2023-05-05T00:44:39.228Z,54.80
2023-05-05T00:47:08.633Z,55.50
2023-05-05T00:49:39.003Z,54.70
2023-05-05T00:52:07.876Z,54.80
2023-05-05T00:54:35.997Z,54.90
2023-05-05T00:57:04.633Z,54.90
2023-05-05T00:59:34.549Z,55.10
2023-05-05T01:02:02.639Z,55.30
2023-05-05T01:04:30.598Z,55.10
2023-05-05T01:07:09.873Z,55.30
2023-05-05T01:09:44.652Z,56.10
2023-05-05T01:12:22.211Z,55.90
2023-05-05T01:15:00.132Z,55.90
2023-05-05T01:17:38.242Z,56.10
2023-05-05T01:20:17.446Z,56.20
2023-05-05T01:22:51.120Z,56.50
2023-05-05T01:25:47.717Z,57.50
2023-05-05T01:28:35.828Z,57.30
2023-05-05T01:31:18.556Z,57.40
2023-05-05T01:33:52.418Z,57.30
2023-05-05T01:36:26.160Z,57.40
2023-05-05T01:38:58.360Z,57.50
2023-05-05T01:41:31.222Z,57.80
2023-05-05T01:44:03.729Z,58.00
2023-05-05T01:46:34.016Z,58.10
2023-05-05T01:49:03.523Z,57.90
2023-05-05T01:51:32.930Z,58.30
2023-05-05T01:54:04.054Z,58.40
2023-05-05T01:56:33.574Z,58.70
2023-05-05T01:59:02.885Z,59.00
2023-05-05T02:01:31.527Z,59.10
2023-05-05T02:04:00.704Z,61.80
2023-05-05T02:06:32.632Z,61.60
2023-05-05T02:09:01.373Z,61.50
2023-05-05T02:11:30.129Z,61.00
2023-05-05T02:13:58.954Z,61.00
2023-05-05T02:16:27.215Z,60.20
2023-05-05T02:18:56.396Z,61.10
2023-05-05T02:21:24.286Z,61.50
2023-05-05T02:23:54.094Z,61.70
2023-05-05T02:26:23.398Z,62.40
2023-05-05T02:28:56.635Z,62.60
2023-05-05T02:31:27.079Z,62.90
2023-05-05T02:33:56.946Z,63.00
2023-05-05T02:36:29.091Z,63.10
2023-05-05T02:39:02.153Z,64.10
2023-05-05T02:41:32.281Z,64.40
2023-05-05T02:44:02.382Z,63.80
2023-05-05T02:46:30.410Z,63.90
2023-05-05T02:48:59.658Z,64.00
2023-05-05T02:51:27.645Z,64.20
2023-05-05T02:53:56.320Z,64.70
2023-05-05T02:56:35.373Z,64.70
2023-05-05T02:59:11.014Z,65.90
2023-05-05T03:01:48.947Z,65.80
2023-05-05T03:04:18.979Z,66.10
2023-05-05T03:06:51.148Z,66.90
2023-05-05T03:09:27.331Z,66.40
2023-05-05T03:12:02.110Z,67.10
2023-05-05T03:14:37.190Z,67.10
2023-05-05T03:17:06.376Z,66.90
2023-05-05T03:19:36.241Z,66.80
2023-05-05T03:22:05.217Z,67.20
2023-05-05T03:24:33.063Z,67.30
2023-05-05T03:27:03.038Z,67.40
2023-05-05T03:29:31.004Z,67.90
2023-05-05T03:32:00.864Z,67.90
2023-05-05T03:34:28.845Z,68.20
2023-05-05T03:36:57.313Z,68.30
2023-05-05T03:39:25.202Z,68.50
2023-05-05T03:41:52.986Z,68.70
2023-05-05T03:44:22.123Z,69.10
2023-05-05T03:46:50.517Z,69.80
2023-05-05T03:49:19.310Z,70.10
2023-05-05T03:51:48.013Z,70.00
2023-05-05T03:54:16.602Z,70.20
2023-05-05T03:56:44.877Z,70.10
2023-05-05T03:59:12.992Z,70.10
2023-05-05T04:01:42.146Z,70.30
2023-05-05T04:04:10.660Z,70.60
2023-05-05T04:06:38.653Z,70.70
2023-05-05T04:09:06.649Z,70.70
2023-05-05T04:11:34.563Z,71.00
2023-05-05T04:14:02.470Z,70.90
2023-05-05T04:16:31.186Z,70.90
2023-05-05T04:19:00.630Z,71.00
2023-05-05T04:21:28.794Z,71.60
2023-05-05T04:23:57.665Z,71.30
2023-05-05T04:26:25.499Z,71.40
2023-05-05T04:28:53.366Z,71.70
2023-05-05T04:31:21.251Z,71.90
2023-05-05T04:33:49.252Z,72.20
2023-05-05T04:36:19.051Z,72.30
2023-05-05T04:38:47.383Z,73.00
2023-05-05T04:41:15.295Z,72.70
2023-05-05T04:43:43.154Z,72.80
2023-05-05T04:46:10.978Z,73.10
2023-05-05T04:48:38.791Z,73.20
2023-05-05T04:51:07.052Z,73.30
2023-05-05T04:53:36.377Z,74.30
2023-05-05T04:56:04.366Z,74.00
2023-05-05T04:58:32.223Z,73.60
2023-05-05T05:01:00.425Z,73.80
2023-05-05T05:03:28.494Z,74.20
2023-05-05T05:05:56.556Z,74.20
2023-05-05T05:08:24.417Z,74.10
2023-05-05T05:10:53.629Z,74.40
2023-05-05T05:13:21.797Z,74.40
2023-05-05T05:15:50.181Z,74.90
2023-05-05T05:18:18.033Z,74.50
2023-05-05T05:20:46.398Z,75.20
2023-05-05T05:23:14.192Z,75.40
2023-05-05T05:25:42.018Z,75.60
2023-05-05T05:28:11.456Z,75.60
2023-05-05T05:30:39.304Z,75.80
2023-05-05T05:33:07.251Z,75.70
2023-05-05T05:35:35.118Z,75.90
2023-05-05T05:38:03.030Z,75.80
2023-05-05T05:40:31.516Z,76.00
2023-05-05T05:42:59.494Z,76.10
2023-05-05T05:45:28.654Z,75.80
2023-05-05T05:47:56.623Z,76.60
2023-05-05T05:50:27.117Z,76.40
2023-05-05T05:52:55.025Z,76.70
2023-05-05T05:55:22.921Z,76.50
2023-05-05T05:57:50.907Z,78.10
2023-05-05T06:00:19.279Z,77.70
2023-05-05T06:02:48.798Z,78.00
2023-05-05T06:05:17.132Z,78.20
2023-05-05T06:07:45.034Z,75.50
2023-05-05T06:10:26.799Z,77.50
2023-05-05T06:12:56.403Z,77.20
2023-05-05T06:15:25.549Z,77.40
2023-05-05T06:17:54.890Z,78.10
2023-05-05T06:20:23.006Z,77.50
2023-05-05T06:22:51.197Z,77.40
2023-05-05T06:25:19.098Z,77.20
2023-05-05T06:27:47.008Z,77.20
2023-05-05T06:30:15.683Z,77.00
2023-05-05T06:32:43.664Z,77.10
2023-05-05T06:35:13.466Z,77.00
2023-05-05T06:37:41.249Z,79.20
2023-05-05T06:40:10.756Z,77.00
2023-05-05T06:42:38.726Z,77.10
2023-05-05T06:45:07.547Z,76.40
2023-05-05T06:47:35.943Z,76.70
2023-05-05T06:50:03.881Z,76.70
2023-05-05T06:52:33.098Z,76.70
2023-05-05T06:55:00.883Z,76.70
2023-05-05T06:57:28.772Z,76.30
2023-05-05T06:59:56.565Z,76.00
2023-05-05T07:02:26.642Z,76.00
2023-05-05T07:04:55.639Z,75.50
2023-05-05T07:07:23.560Z,75.30
2023-05-05T07:09:52.862Z,74.90
2023-05-05T07:12:22.631Z,74.70
2023-05-05T07:14:50.977Z,74.60
2023-05-05T07:17:18.800Z,74.20
2023-05-05T07:19:47.224Z,74.40
2023-05-05T07:22:15.663Z,74.70
2023-05-05T07:24:43.885Z,74.50
2023-05-05T07:27:14.196Z,72.40
2023-05-05T07:29:42.007Z,73.80
2023-05-05T07:32:09.907Z,73.70
2023-05-05T07:34:38.040Z,73.60
2023-05-05T07:37:05.930Z,72.90
2023-05-05T07:39:34.384Z,72.80
2023-05-05T07:42:03.425Z,72.50
2023-05-05T07:44:32.658Z,72.60
2023-05-05T07:47:00.585Z,72.70
2023-05-05T07:49:28.461Z,72.20
2023-05-05T07:51:56.577Z,71.90
2023-05-05T07:54:24.504Z,71.70
2023-05-05T07:56:52.474Z,71.50
2023-05-05T07:59:20.322Z,71.20
2023-05-05T08:01:50.140Z,71.00
2023-05-05T08:04:17.909Z,70.40
2023-05-05T08:06:45.783Z,70.10
2023-05-05T08:09:13.722Z,70.00
2023-05-05T08:11:41.668Z,69.80
2023-05-05T08:14:09.491Z,69.60
2023-05-05T08:16:37.353Z,69.40
2023-05-05T08:19:14.538Z,68.90
2023-05-05T08:21:49.846Z,68.80
2023-05-05T08:24:17.849Z,69.10
2023-05-05T08:26:45.597Z,68.50
2023-05-05T08:29:13.483Z,68.30
2023-05-05T08:31:41.436Z,68.20
2023-05-05T08:34:10.822Z,68.10
2023-05-05T08:36:38.754Z,67.50
2023-05-05T08:39:07.061Z,67.00
2023-05-05T08:41:35.371Z,66.90
2023-05-05T08:44:03.361Z,66.60
2023-05-05T08:46:32.168Z,66.50
2023-05-05T08:49:00.851Z,66.50
2023-05-05T08:51:37.636Z,65.50
2023-05-05T08:54:08.048Z,65.30
2023-05-05T08:56:41.375Z,64.80
2023-05-05T08:59:11.482Z,64.20
2023-05-05T09:01:39.487Z,63.90
2023-05-05T09:04:10.835Z,63.70
2023-05-05T09:06:40.145Z,63.20
2023-05-05T09:09:08.403Z,63.10
2023-05-05T09:11:37.360Z,63.20
2023-05-05T09:14:05.158Z,63.50
2023-05-05T09:16:33.257Z,63.70
2023-05-05T09:19:04.708Z,63.70
2023-05-05T09:21:33.168Z,64.00
2023-05-05T09:24:10.779Z,64.10
2023-05-05T09:26:40.130Z,63.80
2023-05-05T09:29:08.174Z,63.80
2023-05-05T09:31:37.576Z,63.30
2023-05-05T09:34:16.308Z,63.40
2023-05-05T09:36:47.727Z,62.70
2023-05-05T09:39:18.864Z,62.00
2023-05-05T09:41:47.624Z,61.80
2023-05-05T09:44:16.874Z,61.70
2023-05-05T09:46:51.834Z,61.60
2023-05-05T09:49:23.428Z,60.80
2023-05-05T09:51:52.846Z,61.30
2023-05-05T09:54:26.184Z,61.40
2023-05-05T09:56:54.200Z,62.10
2023-05-05T09:59:22.921Z,62.80
2023-05-05T10:01:51.935Z,63.50
2023-05-05T10:04:28.023Z,63.40
2023-05-05T10:06:56.740Z,63.50
2023-05-05T10:09:26.843Z,62.90
2023-05-05T10:11:57.195Z,62.70
2023-05-05T10:14:26.151Z,62.00
2023-05-05T10:16:55.172Z,61.70
2023-05-05T10:19:24.581Z,63.80
2023-05-05T10:21:53.793Z,65.00
2023-05-05T10:24:39.680Z,65.80
2023-05-05T10:27:13.715Z,67.00
2023-05-05T10:29:49.510Z,66.70
2023-05-05T10:32:51.478Z,67.10
2023-05-05T10:35:17.556Z,67.40
2023-05-05T10:37:46.613Z,67.20
2023-05-05T10:40:17.624Z,66.80
2023-05-05T10:42:45.855Z,68.30
2023-05-05T10:45:13.794Z,68.50
2023-05-05T10:47:44.535Z,68.80
2023-05-05T10:50:23.810Z,69.40
2023-05-05T10:53:04.590Z,70.60
2023-05-05T10:55:40.813Z,70.60
2023-05-05T10:58:08.648Z,70.70
2023-05-05T11:00:51.307Z,70.70
2023-05-05T11:03:23.309Z,71.90
2023-05-05T11:06:15.387Z,71.40
2023-05-05T11:08:45.242Z,72.50
2023-05-05T11:11:14.540Z,71.70
2023-05-05T11:13:42.654Z,72.70
2023-05-05T11:16:44.345Z,73.40
2023-05-05T11:19:46.675Z,75.10
2023-05-05T11:22:16.376Z,76.60
2023-05-05T11:24:45.136Z,75.50
2023-05-05T11:27:14.706Z,76.30
2023-05-05T11:30:07.190Z,76.80
2023-05-05T11:32:35.905Z,78.40
2023-05-05T11:35:04.062Z,77.70
2023-05-05T11:37:31.849Z,78.20
2023-05-05T11:40:11.711Z,78.90
2023-05-05T11:42:40.977Z,79.30
2023-05-05T11:45:21.755Z,79.40
2023-05-05T11:47:49.926Z,80.50
2023-05-05T11:50:20.189Z,78.30
2023-05-05T11:52:48.748Z,79.40
2023-05-05T11:55:22.557Z,79.30
2023-05-05T11:57:52.042Z,81.50
2023-05-05T12:00:20.621Z,79.60
2023-05-05T12:02:56.499Z,79.50
2023-05-05T12:05:24.595Z,80.10
2023-05-05T12:07:59.303Z,80.40
2023-05-05T12:10:27.303Z,81.20
2023-05-05T12:12:56.632Z,80.80
2023-05-05T12:15:31.984Z,81.50
2023-05-05T12:18:02.459Z,82.20
2023-05-05T12:20:32.246Z,82.00
2023-05-05T12:23:04.415Z,81.90
2023-05-05T12:25:40.162Z,82.00
2023-05-05T12:28:10.081Z,82.30
2023-05-05T12:30:38.222Z,82.00
2023-05-05T12:33:07.991Z,81.50
2023-05-05T12:35:36.984Z,81.10
2023-05-05T12:38:04.918Z,81.40
2023-05-05T12:40:46.522Z,81.20
2023-05-05T12:43:30.161Z,82.20
2023-05-05T12:46:09.071Z,82.20
2023-05-05T12:48:38.897Z,82.50
2023-05-05T12:51:18.602Z,82.20
2023-05-05T12:53:47.606Z,83.40
2023-05-05T12:56:35.215Z,82.10
2023-05-05T12:59:06.330Z,82.50
2023-05-05T13:01:35.393Z,81.90
2023-05-05T13:04:08.096Z,81.70
2023-05-05T13:06:36.049Z,81.70
2023-05-05T13:09:04.425Z,82.00
2023-05-05T13:11:36.182Z,82.20
2023-05-05T13:14:05.740Z,82.20
2023-05-05T13:16:33.886Z,81.90
2023-05-05T13:19:01.652Z,81.40
2023-05-05T13:21:29.517Z,81.70
2023-05-05T13:24:12.371Z,82.10
2023-05-05T13:26:49.636Z,82.80
2023-05-05T13:29:19.331Z,82.70
2023-05-05T13:31:47.691Z,84.00
2023-05-05T13:34:15.552Z,83.10
2023-05-05T13:36:43.409Z,83.30
2023-05-05T13:39:14.417Z,82.70
2023-05-05T13:41:42.336Z,82.90
2023-05-05T13:44:10.338Z,82.50
2023-05-05T13:46:39.552Z,82.60
2023-05-05T13:49:07.426Z,82.70
2023-05-05T13:51:35.661Z,82.30
2023-05-05T13:54:03.964Z,82.40
2023-05-05T13:56:31.948Z,81.90
2023-05-05T13:58:59.742Z,81.70
2023-05-05T14:01:28.091Z,82.50
2023-05-05T14:03:57.850Z,82.60
2023-05-05T14:06:26.504Z,83.10
2023-05-05T14:08:54.354Z,83.30
2023-05-05T14:11:22.753Z,83.00
2023-05-05T14:13:53.104Z,82.80
2023-05-05T14:16:21.034Z,82.60
2023-05-05T14:18:48.934Z,82.70
2023-05-05T14:21:18.457Z,82.60
2023-05-05T14:23:46.566Z,83.20
2023-05-05T14:26:14.420Z,83.10
2023-05-05T14:28:43.370Z,83.00
2023-05-05T14:31:12.136Z,82.60
2023-05-05T14:33:40.060Z,80.90
2023-05-05T14:36:08.542Z,80.70
2023-05-05T14:38:37.742Z,79.90
2023-05-05T14:41:06.182Z,80.90
2023-05-05T14:43:34.248Z,80.60
2023-05-05T14:46:06.608Z,80.70
2023-05-05T14:48:35.118Z,80.90
2023-05-05T14:51:03.857Z,82.00
2023-05-05T14:53:31.760Z,81.70
2023-05-05T14:56:02.079Z,83.00
2023-05-05T14:58:31.125Z,84.30
2023-05-05T15:01:00.366Z,83.60
2023-05-05T15:03:28.619Z,85.40
2023-05-05T15:05:56.689Z,85.00
2023-05-05T15:08:24.598Z,83.00
2023-05-05T15:10:52.440Z,83.20
2023-05-05T15:13:21.744Z,81.50
2023-05-05T15:15:49.982Z,81.20
2023-05-05T15:18:18.291Z,80.10
2023-05-05T15:20:46.170Z,79.80
2023-05-05T15:23:14.104Z,79.50
2023-05-05T15:25:42.451Z,79.90
2023-05-05T15:28:10.672Z,80.30
2023-05-05T15:30:39.861Z,81.30
2023-05-05T15:33:07.708Z,81.00
2023-05-05T15:35:36.113Z,79.90
2023-05-05T15:38:04.140Z,79.20
2023-05-05T15:40:32.065Z,78.40
2023-05-05T15:43:00.101Z,78.30
2023-05-05T15:45:27.985Z,77.90
2023-05-05T15:47:57.277Z,77.50
2023-05-05T15:50:25.204Z,77.60
2023-05-05T15:52:56.643Z,76.90
2023-05-05T15:55:24.819Z,76.40
2023-05-05T15:57:52.753Z,74.40
2023-05-05T16:00:21.116Z,74.60
2023-05-05T16:02:49.476Z,74.40
2023-05-05T16:05:20.747Z,73.90
2023-05-05T16:07:50.836Z,75.50
2023-05-05T16:10:19.364Z,75.90
2023-05-05T16:12:47.963Z,76.40
2023-05-05T16:15:17.885Z,76.70
2023-05-05T16:17:45.874Z,76.00
2023-05-05T16:20:14.011Z,75.30
2023-05-05T16:22:43.369Z,74.00
2023-05-05T16:25:11.627Z,72.50
2023-05-05T16:27:39.512Z,71.10
2023-05-05T16:30:08.757Z,70.00
2023-05-05T16:32:36.642Z,69.30
2023-05-05T16:35:04.607Z,67.90
2023-05-05T16:37:32.455Z,66.40
2023-05-05T16:40:04.257Z,66.70
2023-05-05T16:42:32.029Z,65.70
2023-05-05T16:44:59.875Z,64.10
2023-05-05T16:47:28.066Z,62.80
2023-05-05T16:49:56.563Z,64.30
2023-05-05T16:52:24.365Z,65.00
2023-05-05T16:54:55.392Z,64.50
2023-05-05T16:57:24.718Z,64.60
2023-05-05T16:59:55.422Z,64.90
2023-05-05T17:02:23.475Z,66.20
2023-05-05T17:04:51.500Z,66.00
2023-05-05T17:07:19.659Z,66.30
2023-05-05T17:09:47.762Z,66.80
2023-05-05T17:12:15.716Z,66.50
2023-05-05T17:14:45.947Z,67.10
2023-05-05T17:17:13.942Z,67.40
2023-05-05T17:19:42.514Z,67.50
2023-05-05T17:22:10.578Z,67.40
2023-05-05T17:24:38.394Z,67.60
2023-05-05T17:27:06.415Z,66.70
2023-05-05T17:29:39.470Z,66.60
2023-05-05T17:32:09.501Z,67.10
2023-05-05T17:34:37.427Z,67.80
2023-05-05T17:37:05.196Z,68.20
2023-05-05T17:39:33.498Z,68.20
2023-05-05T17:42:01.317Z,69.00
2023-05-05T17:44:29.099Z,69.10
2023-05-05T17:46:56.908Z,68.60
2023-05-05T17:49:26.228Z,68.80
2023-05-05T17:51:54.065Z,68.90
2023-05-05T17:54:21.940Z,70.00
2023-05-05T17:56:50.777Z,70.10
2023-05-05T17:59:18.611Z,69.90
2023-05-05T18:01:46.829Z,70.20
2023-05-05T18:04:14.718Z,70.80
2023-05-05T18:06:43.937Z,70.80
2023-05-05T18:09:12.036Z,70.70
2023-05-05T18:11:39.903Z,71.30
2023-05-05T18:14:07.789Z,70.90
2023-05-05T18:16:36.064Z,71.30
2023-05-05T18:19:03.920Z,71.40
2023-05-05T18:21:32.023Z,71.30
2023-05-05T18:24:15.858Z,71.10
2023-05-05T18:26:48.705Z,71.90
2023-05-05T18:29:16.557Z,71.80
2023-05-05T18:31:44.840Z,71.60
2023-05-05T18:34:12.896Z,72.00
2023-05-05T18:36:40.754Z,72.30
2023-05-05T18:39:10.130Z,72.70
2023-05-05T18:41:37.996Z,73.30
2023-05-05T18:44:05.810Z,73.20
2023-05-05T18:46:33.657Z,73.40
2023-05-05T18:49:01.589Z,73.90
2023-05-05T18:51:29.522Z,73.90
2023-05-05T18:53:57.438Z,73.80
2023-05-05T18:56:26.687Z,74.00
2023-05-05T18:58:54.546Z,74.40
2023-05-05T19:01:23.302Z,74.10
2023-05-05T19:03:51.438Z,74.00
2023-05-05T19:06:19.446Z,73.90
2023-05-05T19:08:47.681Z,74.40
2023-05-05T19:11:15.936Z,74.50
2023-05-05T19:13:45.307Z,74.50
2023-05-05T19:16:13.897Z,75.10
2023-05-05T19:18:41.825Z,75.00
2023-05-05T19:21:09.633Z,75.00
2023-05-05T19:23:38.124Z,75.20
2023-05-05T19:26:06.036Z,75.00
2023-05-05T19:28:34.233Z,74.90
2023-05-05T19:31:03.526Z,74.80
2023-05-05T19:33:31.373Z,75.00
2023-05-05T19:35:59.361Z,74.80
2023-05-05T19:38:27.400Z,75.00
2023-05-05T19:40:55.303Z,75.20
2023-05-05T19:43:23.156Z,75.20
2023-05-05T19:45:51.206Z,75.50
2023-05-05T19:48:20.709Z,75.60
2023-05-05T19:50:48.823Z,76.00
2023-05-05T19:53:16.714Z,76.20
2023-05-05T19:55:44.914Z,77.30
2023-05-05T19:58:13.042Z,76.90
2023-05-05T20:00:40.889Z,77.00
2023-05-05T20:03:09.003Z,77.30
2023-05-05T20:05:38.554Z,77.50
2023-05-05T20:08:06.780Z,77.90
2023-05-05T20:10:34.667Z,77.70
2023-05-05T20:13:02.551Z,77.70
2023-05-05T20:15:31.297Z,77.90
2023-05-05T20:17:59.977Z,78.10
2023-05-05T20:20:27.986Z,78.20
2023-05-05T20:22:57.756Z,78.30
2023-05-05T20:25:25.666Z,78.60
2023-05-05T20:27:53.529Z,78.50
2023-05-05T20:30:21.384Z,78.50
2023-05-05T20:32:49.483Z,78.60
2023-05-05T20:35:17.446Z,78.40
2023-05-05T20:37:45.901Z,78.60
2023-05-05T20:40:15.355Z,78.80
2023-05-05T20:42:43.157Z,78.80
2023-05-05T20:45:12.007Z,78.90
2023-05-05T20:47:40.012Z,79.10
2023-05-05T20:50:09.135Z,79.00
2023-05-05T20:52:37.154Z,79.30
2023-05-05T20:55:05.361Z,79.10
2023-05-05T20:57:34.999Z,79.20
2023-05-05T21:00:04.066Z,81.00
2023-05-05T21:02:32.455Z,80.70
2023-05-05T21:05:02.821Z,80.60
2023-05-05T21:07:31.272Z,80.40
2023-05-05T21:09:59.132Z,80.10
2023-05-05T21:12:27.063Z,79.90
2023-05-05T21:14:58.551Z,79.90
2023-05-05T21:17:26.732Z,80.00
2023-05-05T21:19:55.130Z,79.70
2023-05-05T21:22:23.393Z,79.80
2023-05-05T21:24:51.256Z,79.80
2023-05-05T21:27:19.421Z,79.60
2023-05-05T21:29:47.962Z,79.90
2023-05-05T21:32:17.248Z,79.90
2023-05-05T21:34:45.295Z,80.20
2023-05-05T21:37:13.198Z,80.10
2023-05-05T21:39:41.637Z,80.10
2023-05-05T21:42:09.483Z,80.30
2023-05-05T21:44:37.593Z,80.40
2023-05-05T21:47:06.196Z,80.10
2023-05-05T21:49:35.464Z,80.30
2023-05-05T21:52:03.240Z,80.40
2023-05-05T21:54:31.151Z,80.30
2023-05-05T21:56:58.963Z,80.40
2023-05-05T21:59:26.947Z,80.60
2023-05-05T22:01:55.080Z,80.60
2023-05-05T22:04:23.112Z,80.60
2023-05-05T22:06:52.554Z,80.50
2023-05-05T22:09:20.388Z,80.80
2023-05-05T22:11:48.674Z,80.80
2023-05-05T22:14:16.598Z,80.90
2023-05-05T22:16:45.266Z,80.90
2023-05-05T22:19:13.434Z,81.10
2023-05-05T22:21:41.285Z,81.30
2023-05-05T22:24:10.633Z,81.50
2023-05-05T22:26:39.940Z,81.70
2023-05-05T22:29:07.800Z,81.70
2023-05-05T22:31:35.739Z,81.70
2023-05-05T22:34:03.731Z,81.60
2023-05-05T22:36:31.772Z,81.60
2023-05-05T22:38:59.666Z,81.80
2023-05-05T22:41:28.813Z,81.80
2023-05-05T22:43:57.362Z,81.70
2023-05-05T22:46:25.460Z,81.60
2023-05-05T22:48:54.044Z,81.80
2023-05-05T22:51:22.209Z,81.80
2023-05-05T22:53:51.064Z,82.00
2023-05-05T22:56:19.178Z,84.10
2023-05-05T22:58:48.662Z,82.10
2023-05-05T23:01:16.885Z,82.50
2023-05-05T23:03:45.061Z,82.40
2023-05-05T23:06:13.285Z,82.50
2023-05-05T23:08:41.706Z,82.40
2023-05-05T23:11:09.822Z,82.40
2023-05-05T23:13:37.842Z,82.60
2023-05-05T23:16:07.497Z,82.50
2023-05-05T23:18:35.415Z,82.60
2023-05-05T23:21:04.208Z,82.40
2023-05-05T23:23:32.251Z,82.60
2023-05-05T23:26:00.145Z,82.50
2023-05-05T23:28:28.034Z,82.50
2023-05-05T23:30:55.947Z,82.40
2023-05-05T23:33:25.255Z,82.60
2023-05-05T23:35:53.125Z,82.70
2023-05-05T23:38:20.973Z,82.90
2023-05-05T23:40:48.757Z,82.90
2023-05-05T23:43:16.538Z,82.90
2023-05-05T23:45:44.353Z,83.00
2023-05-05T23:48:12.952Z,83.00
2023-05-05T23:50:42.058Z,83.20
2023-05-05T23:53:10.531Z,83.50
2023-05-05T23:55:38.317Z,83.70
2023-05-05T23:58:06.200Z,83.70
